Time;durP1;ratioP1;P1;durP2;ratioP2;P2;SDS_P1;SDS_P2;PMS_P1;PMS_P2;Temp;Humidity;BMP_temperature;BMP_pressure;BME280_temperature;BME280_humidity;BME280_pressure;Samples;Min_cycle;Max_cycle;Signal;HPM_P1;HPM_P2
2022/07/24 00:00:24;;;;;;;7.72;3.58;;;;;;;11.20;100.00;155339.19;4984638;28;20061;-74
2022/07/24 00:02:50;;;;;;;6.38;3.85;;;;;;;11.19;100.00;155336.66;4998879;28;20104;-73
2022/07/24 00:05:16;;;;;;;4.82;3.60;;;;;;;11.19;100.00;155335.34;5000858;28;20661;-74
2022/07/24 00:07:43;;;;;;;5.18;3.50;;;;;;;11.20;100.00;155337.94;4990409;28;20085;-74
2022/07/24 00:10:09;;;;;;;4.07;3.63;;;;;;;11.16;100.00;155328.94;4969331;28;20038;-74
2022/07/24 00:12:36;;;;;;;4.85;3.80;;;;;;;11.10;100.00;155314.81;4980831;28;20497;-76
2022/07/24 00:15:03;;;;;;;6.18;4.05;;;;;;;11.10;100.00;155313.56;4987741;28;20030;-74
2022/07/24 00:17:28;;;;;;;6.40;4.38;;;;;;;11.04;100.00;155298.16;4996400;28;20034;-75
2022/07/24 00:19:54;;;;;;;6.20;4.20;;;;;;;10.99;100.00;155285.31;4982041;28;20381;-74
2022/07/24 00:22:19;;;;;;;4.72;3.90;;;;;;;10.96;100.00;155277.59;4998790;28;20769;-74
2022/07/24 00:24:45;;;;;;;7.57;4.40;;;;;;;10.96;100.00;155278.88;5002316;28;20069;-74
2022/07/24 00:27:11;;;;;;;5.65;4.47;;;;;;;10.96;100.00;155278.88;5000421;28;20754;-75
2022/07/24 00:29:36;;;;;;;5.93;4.43;;;;;;;10.90;100.00;155263.50;4989660;28;20519;-74
2022/07/24 00:32:02;;;;;;;7.20;4.75;;;;;;;10.87;100.00;155255.81;4984755;28;20041;-74
2022/07/24 00:34:28;;;;;;;6.53;4.45;;;;;;;10.87;100.00;155257.09;4999969;28;20057;-75
2022/07/24 00:36:53;;;;;;;5.90;4.30;;;;;;;10.86;100.00;155253.22;4966014;28;20462;-75
2022/07/24 00:39:19;;;;;;;5.43;4.80;;;;;;;10.86;100.00;155254.50;5003111;28;20395;-73
2022/07/24 00:41:44;;;;;;;5.80;4.25;;;;;;;10.87;100.00;155255.81;5002560;28;20069;-75
2022/07/24 00:44:15;;;;;;;7.90;4.72;;;;;;;10.93;100.00;155269.94;5005513;28;20096;-73
2022/07/24 00:46:44;;;;;;;5.20;4.47;;;;;;;10.92;100.00;155268.63;4999308;28;20070;-77
2022/07/24 00:49:12;;;;;;;8.10;4.72;;;;;;;10.91;100.00;155266.06;5001300;28;20042;-75
2022/07/24 00:51:44;;;;;;;6.10;4.38;;;;;;;10.86;100.00;155253.22;4982918;28;20034;-75
2022/07/24 00:54:11;;;;;;;7.43;4.75;;;;;;;10.82;100.00;155244.25;4981581;28;20128;-73
2022/07/24 00:56:38;;;;;;;7.57;5.05;;;;;;;10.86;100.00;155254.50;4981799;28;20046;-75
2022/07/24 00:59:03;;;;;;;9.10;5.03;;;;;;;10.81;100.00;155241.69;4985012;28;20030;-75
2022/07/24 01:01:30;;;;;;;6.32;5.43;;;;;;;10.77;100.00;155230.13;4976307;28;20376;-74
2022/07/24 01:03:57;;;;;;;7.13;5.70;;;;;;;10.70;100.00;155214.75;4978103;28;20027;-75
2022/07/24 01:06:24;;;;;;;10.23;5.00;;;;;;;10.67;100.00;155207.03;4985536;28;20645;-75
2022/07/24 01:08:50;;;;;;;5.93;5.32;;;;;;;10.65;100.00;155200.63;4976908;28;20034;-75
2022/07/24 01:11:16;;;;;;;8.32;5.30;;;;;;;10.66;100.00;155204.50;4991580;28;20746;-76
2022/07/24 01:13:42;;;;;;;9.10;5.07;;;;;;;10.68;100.00;155208.31;4987232;28;20030;-77
2022/07/24 01:16:09;;;;;;;7.43;5.20;;;;;;;10.69;100.00;155210.88;4986844;28;20089;-72
2022/07/24 01:18:35;;;;;;;9.70;5.22;;;;;;;10.70;100.00;155213.47;4971933;28;20038;-76
2022/07/24 01:21:02;;;;;;;8.90;5.43;;;;;;;10.67;100.00;155205.75;4986741;28;20040;-76
2022/07/24 01:23:28;;;;;;;6.25;4.60;;;;;;;10.53;100.00;155171.13;4986963;28;20097;-75
2022/07/24 01:25:54;;;;;;;6.85;5.07;;;;;;;10.44;100.00;155149.31;4984370;28;20054;-74
2022/07/24 01:28:20;;;;;;;7.50;5.32;;;;;;;10.48;100.00;155159.56;5000384;28;20710;-75
2022/07/24 01:30:46;;;;;;;8.20;5.18;;;;;;;10.45;100.00;155150.59;4990065;28;20087;-75
2022/07/24 01:33:12;;;;;;;6.57;5.18;;;;;;;10.37;100.00;155131.34;5000122;28;20042;-75
2022/07/24 01:35:37;;;;;;;7.65;5.25;;;;;;;10.33;100.00;155121.09;4996599;28;20085;-75
2022/07/24 01:38:03;;;;;;;6.47;4.93;;;;;;;10.44;100.00;155149.31;4966350;28;20030;-75
2022/07/24 01:40:29;;;;;;;5.60;5.03;;;;;;;10.52;100.00;155168.56;4985275;28;20061;-76
2022/07/24 01:42:54;;;;;;;6.13;5.38;;;;;;;10.52;100.00;155169.81;4999616;28;20129;-74
2022/07/24 01:45:21;;;;;;;8.18;6.25;;;;;;;10.56;100.00;155178.81;4981569;28;20459;-76
2022/07/24 01:47:47;;;;;;;12.00;6.93;;;;;;;10.61;100.00;155190.38;4981122;28;20089;-77
2022/07/24 01:50:14;;;;;;;11.18;6.53;;;;;;;10.60;100.00;155187.78;4977321;28;20042;-76
2022/07/24 01:52:39;;;;;;;8.35;6.30;;;;;;;10.54;100.00;155173.69;4956874;28;20045;-77
2022/07/24 01:55:06;;;;;;;6.90;6.05;;;;;;;10.53;100.00;155171.13;5002039;28;20033;-76
2022/07/24 01:57:32;;;;;;;8.13;6.25;;;;;;;10.49;100.00;155162.16;4978540;28;20704;-76
2022/07/24 01:59:58;;;;;;;8.10;6.03;;;;;;;10.43;100.00;155146.72;4985213;28;20173;-77
2022/07/24 02:02:25;;;;;;;7.68;6.13;;;;;;;10.50;100.00;155163.44;4993115;28;20045;-76
2022/07/24 02:04:51;;;;;;;7.18;6.18;;;;;;;10.43;100.00;155146.72;4981838;28;20038;-76
2022/07/24 02:07:17;;;;;;;8.75;6.60;;;;;;;10.39;100.00;155135.19;4987684;28;20052;-77
2022/07/24 02:09:42;;;;;;;6.30;5.68;;;;;;;10.33;100.00;155121.09;4973319;28;20053;-77
2022/07/24 02:12:08;;;;;;;7.65;5.90;;;;;;;10.32;100.00;155118.50;5001651;28;20038;-77
2022/07/24 02:14:34;;;;;;;7.25;5.78;;;;;;;10.33;100.00;155122.38;4975381;28;20046;-75
2022/07/24 02:17:02;;;;;;;7.50;5.50;;;;;;;10.29;100.00;155112.06;5001894;28;20117;-74
2022/07/24 02:19:27;;;;;;;8.63;4.97;;;;;;;10.19;100.00;155086.44;4985111;28;20034;-74
2022/07/24 02:21:53;;;;;;;9.57;6.40;;;;;;;9.99;100.00;155036.38;4986781;28;20056;-74
2022/07/24 02:24:19;;;;;;;6.85;5.07;;;;;;;9.93;100.00;155022.28;4985720;28;20042;-74
2022/07/24 02:26:44;;;;;;;8.73;5.63;;;;;;;9.90;100.00;155013.31;4986027;28;20121;-75
2022/07/24 02:29:10;;;;;;;7.38;5.60;;;;;;;9.80;100.00;154988.94;4973703;28;20042;-74
2022/07/24 02:31:36;;;;;;;6.32;5.55;;;;;;;9.74;100.00;154974.84;4969425;28;20061;-75
2022/07/24 02:34:02;;;;;;;7.28;5.50;;;;;;;9.73;100.00;154970.97;4997020;28;20396;-74
2022/07/24 02:36:28;;;;;;;7.82;5.50;;;;;;;9.77;100.00;154981.25;5000905;28;20062;-74
2022/07/24 02:38:54;;;;;;;7.38;5.65;;;;;;;9.74;100.00;154973.56;4982675;28;20069;-74
2022/07/24 02:41:19;;;;;;;7.07;5.30;;;;;;;9.75;100.00;154977.38;4974320;28;20042;-73
2022/07/24 02:43:45;;;;;;;6.75;4.88;;;;;;;9.75;100.00;154976.09;4970433;28;20038;-74
2022/07/24 02:46:10;;;;;;;6.30;5.30;;;;;;;9.78;100.00;154982.56;4979844;28;20471;-75
2022/07/24 02:48:38;;;;;;;5.93;5.32;;;;;;;9.73;100.00;154970.97;4972980;28;20039;-73
2022/07/24 02:51:04;;;;;;;8.15;5.47;;;;;;;9.71;100.00;154967.13;4973367;28;20038;-74
2022/07/24 02:53:30;;;;;;;10.65;5.78;;;;;;;9.83;100.00;154996.66;4973820;28;20136;-74
2022/07/24 02:55:55;;;;;;;9.63;5.53;;;;;;;9.88;100.00;155009.44;4985550;28;20038;-75
2022/07/24 02:58:21;;;;;;;7.13;5.47;;;;;;;9.91;100.00;155017.16;4991523;28;20042;-75
2022/07/24 03:00:47;;;;;;;5.93;5.20;;;;;;;9.90;100.00;155013.31;4973186;28;20073;-74
2022/07/24 03:03:12;;;;;;;5.88;5.28;;;;;;;9.90;100.00;155014.56;4999061;28;20035;-74
2022/07/24 03:05:38;;;;;;;7.00;5.50;;;;;;;9.92;100.00;155018.44;4966073;28;20376;-74
2022/07/24 03:08:04;;;;;;;7.82;5.47;;;;;;;9.85;100.00;155001.78;4988184;28;20034;-74
2022/07/24 03:10:30;;;;;;;6.97;5.43;;;;;;;9.81;100.00;154990.22;4987563;28;20065;-75
2022/07/24 03:12:55;;;;;;;7.38;5.80;;;;;;;9.75;100.00;154977.38;4981389;28;20117;-73
2022/07/24 03:15:21;;;;;;;6.68;5.63;;;;;;;9.74;100.00;154973.56;4980615;28;20145;-74
2022/07/24 03:17:52;;;;;;;9.63;5.70;;;;;;;9.72;100.00;154968.44;4989230;28;20034;-75
2022/07/24 03:20:18;;;;;;;6.20;5.70;;;;;;;9.64;100.00;154947.91;4999610;28;20046;-74
2022/07/24 03:22:45;;;;;;;6.43;5.82;;;;;;;9.66;100.00;154953.03;4987270;28;20042;-74
2022/07/24 03:25:10;;;;;;;10.40;5.93;;;;;;;9.68;100.00;154958.16;4984007;28;20411;-74
2022/07/24 03:27:36;;;;;;;6.85;5.90;;;;;;;9.70;100.00;154964.59;4977958;28;20038;-74
2022/07/24 03:30:03;;;;;;;6.95;5.60;;;;;;;9.73;100.00;154970.97;4978446;28;20026;-74
2022/07/24 03:32:29;;;;;;;9.10;6.10;;;;;;;9.72;100.00;154968.44;4957338;28;20114;-74
2022/07/24 03:34:55;;;;;;;7.53;5.55;;;;;;;9.74;100.00;154973.56;4972763;28;20132;-76
2022/07/24 03:37:20;;;;;;;6.40;5.70;;;;;;;9.74;100.00;154973.56;4985806;28;20747;-74
2022/07/24 03:39:46;;;;;;;8.63;5.78;;;;;;;9.77;100.00;154979.97;4985385;28;20081;-73
2022/07/24 03:42:11;;;;;;;7.20;5.70;;;;;;;9.78;100.00;154983.81;4998021;28;20037;-74
2022/07/24 03:44:37;;;;;;;7.30;5.90;;;;;;;9.79;100.00;154985.09;4989968;28;20070;-74
2022/07/24 03:47:02;;;;;;;8.80;6.10;;;;;;;9.83;100.00;154996.66;5000347;28;20061;-73
2022/07/24 03:49:28;;;;;;;10.02;6.00;;;;;;;9.81;100.00;154991.47;4983343;28;20066;-74
2022/07/24 03:51:53;;;;;;;9.18;6.43;;;;;;;9.81;100.00;154991.47;4987102;28;20072;-74
2022/07/24 03:54:19;;;;;;;11.40;6.03;;;;;;;9.87;100.00;155005.59;4988625;28;20049;-73
2022/07/24 03:56:44;;;;;;;11.48;7.07;;;;;;;10.07;100.00;155056.91;4999811;28;20027;-75
2022/07/24 03:59:10;;;;;;;8.60;6.75;;;;;;;10.20;100.00;155088.97;4985933;28;20034;-74
2022/07/24 04:01:36;;;;;;;9.80;6.90;;;;;;;10.31;100.00;155115.97;4978676;28;20038;-74
2022/07/24 04:04:04;;;;;;;11.45;6.90;;;;;;;10.40;100.00;155139.06;4977466;28;20437;-73
2022/07/24 04:06:32;;;;;;;11.68;7.38;;;;;;;10.42;100.00;155144.19;4983070;28;20117;-74
2022/07/24 04:08:58;;;;;;;9.15;6.40;;;;;;;10.42;100.00;155142.91;4981237;28;20499;-74
2022/07/24 04:11:24;;;;;;;8.73;6.80;;;;;;;10.42;100.00;155142.91;4983494;28;20038;-74
2022/07/24 04:13:50;;;;;;;12.25;7.97;;;;;;;10.56;100.00;155178.81;4984704;28;20125;-74
2022/07/24 04:16:15;;;;;;;9.68;7.65;;;;;;;10.60;100.00;155189.06;4997679;28;20121;-74
2022/07/24 04:18:42;;;;;;;9.43;7.07;;;;;;;10.61;100.00;155190.38;4988339;28;20054;-74
2022/07/24 04:21:07;;;;;;;10.32;7.70;;;;;;;10.69;100.00;155210.88;4978339;28;20038;-74
2022/07/24 04:23:33;;;;;;;9.07;7.63;;;;;;;10.70;100.00;155214.75;4963181;28;20088;-74
2022/07/24 04:25:59;;;;;;;12.02;8.70;;;;;;;10.76;100.00;155228.88;4984543;28;20030;-74
2022/07/24 04:28:25;;;;;;;10.23;7.85;;;;;;;10.83;100.00;155245.50;4984068;28;20035;-75
2022/07/24 04:30:50;;;;;;;11.48;7.88;;;;;;;10.88;100.00;155258.34;4977011;28;20100;-74
2022/07/24 04:33:16;;;;;;;11.18;7.63;;;;;;;10.97;100.00;155280.19;4964341;28;20058;-74
2022/07/24 04:35:44;;;;;;;8.15;7.35;;;;;;;11.04;100.00;155298.16;4980327;28;20514;-74
2022/07/24 04:38:09;;;;;;;15.52;7.68;;;;;;;11.05;100.00;155300.72;4984406;28;20043;-75
2022/07/24 04:40:35;;;;;;;10.07;7.93;;;;;;;11.07;100.00;155305.84;4967355;28;20105;-75
2022/07/24 04:43:01;;;;;;;11.63;8.45;;;;;;;11.13;100.00;155321.22;4979326;28;20039;-74
2022/07/24 04:45:26;;;;;;;13.50;7.43;;;;;;;11.21;100.00;155340.53;4971701;28;20076;-74
2022/07/24 04:47:52;;;;;;;9.63;7.40;;;;;;;11.23;100.00;155345.66;4973901;28;20092;-74
2022/07/24 04:50:18;;;;;;;10.35;7.57;;;;;;;11.31;100.00;155366.16;4985756;28;20038;-73
2022/07/24 04:52:44;;;;;;;9.38;6.90;;;;;;;11.31;100.00;155366.16;4986254;28;20065;-75
2022/07/24 04:55:10;;;;;;;10.00;6.88;;;;;;;11.34;100.00;155372.56;4988483;28;20057;-74
2022/07/24 04:57:36;;;;;;;11.43;7.70;;;;;;;11.35;100.00;155376.44;4987869;28;20039;-74
2022/07/24 05:00:04;;;;;;;7.95;7.05;;;;;;;11.47;100.00;155405.94;4964454;28;20026;-74
2022/07/24 05:02:30;;;;;;;9.75;6.70;;;;;;;11.54;100.00;155423.91;4988185;28;20548;-75
2022/07/24 05:04:56;;;;;;;11.55;6.95;;;;;;;11.60;100.00;155438.03;4996697;28;20114;-75
2022/07/24 05:07:22;;;;;;;10.90;6.75;;;;;;;11.66;100.00;155453.47;4984819;28;20622;-75
2022/07/24 05:09:47;;;;;;;11.00;6.97;;;;;;;11.77;100.00;155480.41;4983029;28;20487;-74
2022/07/24 05:12:13;;;;;;;8.85;6.38;;;;;;;11.81;100.00;155490.66;4987944;28;20056;-75
2022/07/24 05:14:38;;;;;;;9.80;6.57;;;;;;;11.88;100.00;155509.97;4972529;28;20046;-75
2022/07/24 05:17:04;;;;;;;8.90;6.45;;;;;;;11.99;100.00;155536.94;4990043;28;20034;-76
2022/07/24 05:19:30;;;;;;;6.95;6.25;;;;;;;12.07;100.00;155556.22;4999699;28;20148;-76
2022/07/24 05:21:55;;;;;;;7.45;6.00;;;;;;;12.08;100.00;155560.06;4954564;28;20085;-76
2022/07/24 05:24:21;;;;;;;10.07;6.00;;;;;;;12.18;100.00;155583.19;5001906;28;20042;-76
2022/07/24 05:26:46;;;;;;;6.22;5.68;;;;;;;12.21;100.00;155590.91;4987802;28;20034;-75
2022/07/24 05:29:12;;;;;;;11.88;5.70;;;;;;;12.30;100.00;155614.03;4988322;28;20054;-74
2022/07/24 05:31:38;;;;;;;6.85;5.50;;;;;;;12.43;100.00;155646.09;4986277;28;20034;-74
2022/07/24 05:34:03;;;;;;;8.45;5.35;;;;;;;12.56;100.00;155679.50;4985971;28;20061;-75
2022/07/24 05:36:29;;;;;;;9.23;5.07;;;;;;;12.62;100.00;155694.94;4969097;28;20673;-75
2022/07/24 05:38:55;;;;;;;8.88;5.45;;;;;;;12.77;100.00;155732.22;5000333;28;20089;-76
2022/07/24 05:41:20;;;;;;;8.32;5.50;;;;;;;12.90;100.00;155763.03;4984893;28;20452;-74
2022/07/24 05:43:46;;;;;;;7.18;4.97;;;;;;;13.03;100.00;155797.75;4979562;28;20137;-75
2022/07/24 05:46:12;;;;;;;7.45;5.03;;;;;;;13.19;100.00;155837.56;4973723;28;20538;-74
2022/07/24 05:48:38;;;;;;;5.85;4.63;;;;;;;13.31;100.00;155865.88;4988453;28;20459;-75
2022/07/24 05:51:03;;;;;;;9.65;4.40;;;;;;;13.49;100.00;155910.88;4974510;28;20045;-76
2022/07/24 05:53:29;;;;;;;6.95;3.83;;;;;;;13.62;100.00;155944.28;4988923;28;20038;-75
2022/07/24 05:55:54;;;;;;;10.85;4.00;;;;;;;13.72;100.00;155969.97;4967622;28;20084;-76
2022/07/24 05:58:20;;;;;;;8.88;4.00;;;;;;;13.88;100.00;156009.84;4987370;28;20058;-76
2022/07/24 06:00:46;;;;;;;6.90;4.00;;;;;;;14.08;100.00;156059.97;4955700;28;20049;-76
2022/07/24 06:03:12;;;;;;;5.03;3.25;;;;;;;14.22;100.00;156094.66;4986656;28;20038;-76
2022/07/24 06:05:38;;;;;;;5.95;3.13;;;;;;;14.40;100.00;156140.97;4969731;28;20045;-75
2022/07/24 06:08:04;;;;;;;7.57;3.17;;;;;;;14.52;100.00;156170.59;4986249;28;20038;-76
2022/07/24 06:10:31;;;;;;;7.45;2.70;;;;;;;14.68;100.00;156210.47;4991419;28;20443;-75
2022/07/24 06:12:57;;;;;;;4.55;2.35;;;;;;;14.87;100.00;156256.78;4988773;28;20038;-75
2022/07/24 06:15:23;;;;;;;3.75;2.35;;;;;;;15.01;100.00;156292.78;4995570;28;20048;-75
2022/07/24 06:17:49;;;;;;;5.75;2.42;;;;;;;15.16;100.00;156331.41;4999409;28;20027;-76
2022/07/24 06:20:16;;;;;;;5.95;2.22;;;;;;;15.30;100.00;156366.13;4973601;28;20042;-75
2022/07/24 06:22:43;;;;;;;5.57;2.17;;;;;;;15.48;100.00;156409.88;4977021;28;20030;-77
2022/07/24 06:25:09;;;;;;;6.25;2.00;;;;;;;15.64;100.00;156451.06;4974801;28;20593;-74
2022/07/24 06:27:42;;;;;;;5.63;1.80;;;;;;;15.75;100.00;156478.16;5003845;28;20037;-75
2022/07/24 06:30:28;;;;;;;3.53;1.70;;;;;;;15.82;100.00;156494.88;5003387;28;20054;-75
2022/07/24 06:32:59;;;;;;;3.05;1.58;;;;;;;15.90;100.00;156515.50;4986899;28;20062;-75
2022/07/24 06:35:26;;;;;;;5.25;1.70;;;;;;;15.99;100.00;156538.63;4991121;28;20042;-76
2022/07/24 06:37:53;;;;;;;3.45;1.48;;;;;;;16.13;100.00;156574.69;5007871;28;20030;-76
2022/07/24 06:40:19;;;;;;;4.35;1.45;;;;;;;16.31;100.00;156618.44;4989149;28;20125;-76
2022/07/24 06:42:47;;;;;;;6.38;1.75;;;;;;;16.51;100.00;156669.94;4988744;28;20035;-76
2022/07/24 06:45:13;;;;;;;4.20;1.48;;;;;;;16.69;100.00;156715.03;4975671;28;20049;-76
2022/07/24 06:47:39;;;;;;;2.58;1.58;;;;;;;16.77;100.00;156734.34;4989437;28;20404;-76
2022/07/24 06:50:05;;;;;;;3.85;1.75;;;;;;;16.92;100.00;156773.00;5002155;28;20037;-76
2022/07/24 06:52:31;;;;;;;3.30;1.27;;;;;;;17.12;100.00;156823.25;4989471;28;20046;-77
2022/07/24 06:54:57;;;;;;;3.83;1.50;;;;;;;17.29;99.38;156865.75;4989475;28;20760;-76
2022/07/24 06:57:25;;;;;;;2.92;1.38;;;;;;;17.35;97.09;156879.94;4989138;28;21343;-76
2022/07/24 06:59:52;;;;;;;4.38;1.50;;;;;;;17.47;97.36;156909.56;4986778;28;20065;-75
2022/07/24 07:02:18;;;;;;;3.20;1.27;;;;;;;17.54;96.92;156926.28;4975060;28;20042;-74
2022/07/24 07:04:44;;;;;;;4.20;1.15;;;;;;;17.69;94.78;156964.97;4985679;28;20381;-74
2022/07/24 07:07:10;;;;;;;4.93;1.33;;;;;;;17.79;93.67;156990.72;4990335;28;20049;-74
2022/07/24 07:09:35;;;;;;;3.03;1.45;;;;;;;17.88;94.65;157013.97;5000133;28;20039;-75
2022/07/24 07:12:02;;;;;;;2.28;1.10;;;;;;;18.05;95.97;157055.22;4989294;28;20045;-74
2022/07/24 07:14:28;;;;;;;6.97;1.48;;;;;;;18.14;92.80;157078.41;4989472;28;20398;-75
2022/07/24 07:16:53;;;;;;;4.78;1.30;;;;;;;18.26;93.21;157108.03;4997361;28;20113;-75
2022/07/24 07:19:19;;;;;;;2.88;1.40;;;;;;;18.36;91.24;157132.53;4985077;28;20042;-75
2022/07/24 07:21:44;;;;;;;1.67;0.93;;;;;;;18.47;92.05;157162.16;4990261;28;20049;-73
2022/07/24 07:24:10;;;;;;;1.77;0.90;;;;;;;18.58;93.21;157187.97;4990096;28;20522;-74
2022/07/24 07:26:35;;;;;;;1.77;1.10;;;;;;;18.66;90.36;157209.84;4985576;28;20670;-74
2022/07/24 07:29:01;;;;;;;2.97;1.40;;;;;;;18.84;91.72;157255.03;5007214;28;20086;-76
2022/07/24 07:31:27;;;;;;;5.05;1.50;;;;;;;18.84;90.06;157253.75;4986720;28;20516;-74
2022/07/24 07:33:53;;;;;;;3.60;1.20;;;;;;;19.00;90.44;157295.00;4984324;28;20034;-74
2022/07/24 07:36:19;;;;;;;3.22;1.38;;;;;;;19.12;90.09;157323.34;5003005;28;20410;-74
2022/07/24 07:38:45;;;;;;;2.92;1.05;;;;;;;19.09;88.87;157315.66;4983631;28;20471;-74
2022/07/24 07:41:11;;;;;;;4.82;1.27;;;;;;;19.18;88.86;157338.88;4999947;28;20042;-75
2022/07/24 07:43:38;;;;;;;2.97;1.30;;;;;;;19.36;87.99;157383.97;4990768;28;20080;-74
2022/07/24 07:46:04;;;;;;;3.88;1.10;;;;;;;19.41;88.13;157398.16;5001734;28;20053;-74
2022/07/24 07:48:30;;;;;;;1.67;1.05;;;;;;;19.53;88.20;157427.81;4988233;28;20042;-74
2022/07/24 07:50:56;;;;;;;3.22;1.23;;;;;;;19.66;86.59;157460.06;5002475;28;20089;-74
2022/07/24 07:53:22;;;;;;;1.92;1.02;;;;;;;19.90;87.11;157520.75;4984650;28;20697;-74
2022/07/24 07:55:52;;;;;;;2.75;1.30;;;;;;;19.98;84.16;157540.09;5003915;28;20633;-74
2022/07/24 07:58:18;;;;;;;3.08;1.15;;;;;;;20.08;85.48;157564.59;5006169;28;20046;-73
2022/07/24 08:00:44;;;;;;;3.42;1.30;;;;;;;20.27;83.78;157612.34;5006142;28;20399;-74
2022/07/24 08:03:10;;;;;;;3.70;1.13;;;;;;;20.41;84.32;157649.75;5004356;28;20050;-73
2022/07/24 08:05:35;;;;;;;4.15;1.08;;;;;;;20.49;81.13;157669.09;5000853;28;20046;-73
2022/07/24 08:08:01;;;;;;;2.22;1.30;;;;;;;20.55;81.66;157683.31;4992244;28;20503;-71
2022/07/24 08:10:27;;;;;;;3.55;0.93;;;;;;;20.66;81.07;157710.47;4970625;28;20046;-74
2022/07/24 08:12:52;;;;;;;3.42;0.98;;;;;;;20.85;80.60;157759.53;4984991;28;20483;-72
2022/07/24 08:15:19;;;;;;;1.33;1.00;;;;;;;20.88;79.18;157765.97;4989323;28;20066;-73
2022/07/24 08:17:44;;;;;;;3.33;1.10;;;;;;;21.04;79.38;157805.97;5009346;28;20049;-74
2022/07/24 08:20:10;;;;;;;1.67;1.10;;;;;;;21.11;78.67;157824.03;4990068;28;20034;-73
2022/07/24 08:22:36;;;;;;;1.92;0.82;;;;;;;21.31;80.00;157874.41;4992685;28;20042;-74
2022/07/24 08:25:02;;;;;;;3.08;1.30;;;;;;;21.66;78.69;157963.56;4985752;28;20038;-73
2022/07/24 08:27:28;;;;;;;3.08;1.20;;;;;;;21.77;75.73;157990.63;4990165;28;20506;-73
2022/07/24 08:29:54;;;;;;;2.67;0.80;;;;;;;21.93;77.14;158030.69;4987251;28;20121;-73
2022/07/24 08:32:20;;;;;;;5.45;1.20;;;;;;;21.96;75.71;158039.75;4987908;28;20042;-75
2022/07/24 08:34:46;;;;;;;4.35;1.35;;;;;;;22.05;75.34;158061.66;5005096;28;20550;-75
2022/07/24 08:37:12;;;;;;;1.23;1.00;;;;;;;22.01;73.65;158050.06;5001632;28;20043;-75
2022/07/24 08:39:37;;;;;;;4.93;1.08;;;;;;;22.09;73.10;158071.97;4991001;28;20035;-74
2022/07/24 08:42:03;;;;;;;1.35;1.15;;;;;;;22.33;74.66;158132.75;4984102;28;20088;-74
2022/07/24 08:44:29;;;;;;;4.13;1.00;;;;;;;22.38;72.45;158144.41;4982447;28;20030;-75
2022/07/24 08:46:58;;;;;;;2.40;1.05;;;;;;;22.50;71.06;158174.09;4985108;28;20142;-75
2022/07/24 08:49:26;;;;;;;2.80;1.23;;;;;;;22.53;70.28;158181.88;4998841;28;20038;-73
2022/07/24 08:51:57;;;;;;;2.25;1.05;;;;;;;22.69;71.90;158223.16;5001234;28;20034;-75
2022/07/24 08:54:23;;;;;;;2.27;1.40;;;;;;;22.68;68.51;158220.59;4981500;28;20042;-74
2022/07/24 08:56:49;;;;;;;2.58;1.08;;;;;;;22.66;69.38;158214.13;4971533;28;20045;-75
2022/07/24 08:59:19;;;;;;;1.45;1.30;;;;;;;22.71;67.32;158228.31;4983451;28;20034;-74
2022/07/24 09:01:47;;;;;;;4.30;1.38;;;;;;;22.91;68.87;158277.44;4984431;28;20758;-73
2022/07/24 09:04:39;;;;;;;5.05;1.38;;;;;;;22.93;68.75;158283.91;4995578;28;20057;-73
2022/07/24 09:07:09;;;;;;;3.83;1.50;;;;;;;23.05;67.22;158313.66;4964464;28;20026;-74
2022/07/24 09:09:37;;;;;;;1.60;1.40;;;;;;;23.13;67.15;158334.34;4996152;28;20062;-73
2022/07/24 09:12:08;;;;;;;4.47;1.48;;;;;;;23.05;66.66;158313.66;4997515;28;20034;-75
2022/07/24 09:14:36;;;;;;;3.95;1.27;;;;;;;23.02;64.77;158304.56;4963917;28;20045;-74
2022/07/24 09:17:14;;;;;;;2.20;1.30;;;;;;;23.27;66.26;158369.22;4986665;28;20480;-75
2022/07/24 09:19:56;;;;;;;2.83;1.23;;;;;;;23.62;66.88;158455.81;4982712;28;20048;-74
2022/07/24 09:22:32;;;;;;;2.95;1.38;;;;;;;23.71;65.62;158480.41;4985297;28;20097;-75
2022/07/24 09:25:12;;;;;;;4.57;1.55;;;;;;;23.89;65.68;158525.66;5005687;28;20047;-74
2022/07/24 09:27:41;;;;;;;2.80;1.50;;;;;;;24.07;65.28;158570.94;4980619;28;20039;-74
2022/07/24 09:30:08;;;;;;;2.88;1.90;;;;;;;24.18;61.54;158596.78;4986346;28;20154;-73
2022/07/24 09:32:36;;;;;;;1.45;1.13;;;;;;;24.09;63.75;158576.09;4962158;28;20495;-75
2022/07/24 09:35:02;;;;;;;1.50;1.00;;;;;;;24.17;63.23;158594.22;4986949;28;20038;-75
2022/07/24 09:37:28;;;;;;;2.80;1.23;;;;;;;24.13;62.42;158585.16;4989137;28;20094;-74
2022/07/24 09:40:06;;;;;;;2.78;1.30;;;;;;;24.30;64.48;158627.81;4997755;28;20738;-74
2022/07/24 09:42:38;;;;;;;2.53;1.40;;;;;;;24.37;64.30;158645.88;4987382;28;20054;-76
2022/07/24 09:45:07;;;;;;;2.33;1.50;;;;;;;24.58;62.55;158697.66;4975278;28;20031;-74
2022/07/24 09:47:35;;;;;;;6.07;1.50;;;;;;;24.60;61.47;158702.81;4978424;28;20085;-75
2022/07/24 09:50:16;;;;;;;1.42;1.33;;;;;;;24.68;60.98;158724.81;4964021;28;20097;-74
2022/07/24 09:52:44;;;;;;;2.58;1.60;;;;;;;24.92;63.00;158783.00;4984785;28;20038;-74
2022/07/24 09:55:22;;;;;;;3.17;1.60;;;;;;;24.95;59.73;158790.78;5002787;28;20050;-75
2022/07/24 09:57:48;;;;;;;3.40;1.60;;;;;;;24.95;61.29;158792.06;4958860;28;20042;-74
2022/07/24 10:00:15;;;;;;;2.72;1.40;;;;;;;25.22;61.50;158860.66;4979858;28;20034;-74
2022/07/24 10:02:43;;;;;;;3.33;1.60;;;;;;;25.36;57.14;158894.31;4979471;28;20045;-73
2022/07/24 10:05:11;;;;;;;2.35;1.33;;;;;;;25.47;57.20;158921.44;4952495;28;20045;-76
2022/07/24 10:07:37;;;;;;;2.30;1.50;;;;;;;25.53;57.32;158938.28;4988610;28;20060;-74
2022/07/24 10:10:03;;;;;;;3.88;1.73;;;;;;;25.72;60.09;158986.16;4985750;28;20041;-75
2022/07/24 10:12:30;;;;;;;1.30;1.20;;;;;;;26.05;58.39;159067.72;4986312;28;20041;-75
2022/07/24 10:14:57;;;;;;;2.15;1.73;;;;;;;26.00;58.88;159057.38;4989124;28;20097;-73
2022/07/24 10:17:55;;;;;;;2.72;1.83;;;;;;;26.05;54.50;159069.03;4988191;28;20030;-76
2022/07/24 10:20:37;;;;;;;4.53;2.05;;;;;;;26.00;55.43;159056.09;4984566;28;20085;-76
2022/07/24 10:23:05;;;;;;;2.78;1.95;;;;;;;26.24;56.32;159116.91;4984081;28;20027;-74
2022/07/24 10:26:06;;;;;;;3.45;2.22;;;;;;;26.50;55.16;159182.88;4986649;28;20586;-74
2022/07/24 10:28:37;;;;;;;4.00;2.15;;;;;;;26.43;53.35;159164.81;4969818;28;20072;-75
2022/07/24 10:31:05;;;;;;;1.85;1.70;;;;;;;26.32;54.02;159137.59;4992116;28;20125;-75
2022/07/24 10:33:31;;;;;;;4.65;1.80;;;;;;;26.27;58.06;159123.38;4970659;28;20103;-74
2022/07/24 10:36:00;;;;;;;2.55;1.80;;;;;;;26.29;54.19;159128.53;4977266;28;20034;-75
2022/07/24 10:38:36;;;;;;;4.35;1.70;;;;;;;26.40;54.94;159158.31;4987390;28;20030;-75
2022/07/24 10:41:08;;;;;;;2.10;1.90;;;;;;;26.79;55.66;159255.44;4985608;28;20084;-74
2022/07/24 10:43:34;;;;;;;6.72;2.15;;;;;;;26.90;53.08;159283.94;4965235;28;20112;-75
2022/07/24 10:46:06;;;;;;;3.53;2.40;;;;;;;26.89;52.67;159280.03;4974844;28;20112;-76
2022/07/24 10:48:35;;;;;;;5.88;2.10;;;;;;;27.09;51.08;159330.53;4986142;28;20042;-74
2022/07/24 10:51:10;;;;;;;3.97;2.33;;;;;;;27.02;50.93;159312.41;5000098;28;20634;-74
2022/07/24 10:53:39;;;;;;;5.90;2.38;;;;;;;27.19;51.94;159356.41;4985594;28;20039;-73
2022/07/24 10:56:20;;;;;;;3.17;2.20;;;;;;;27.24;50.89;159369.38;4986681;28;20046;-75
2022/07/24 10:59:01;;;;;;;3.67;2.10;;;;;;;27.34;53.19;159395.28;5000264;28;20042;-74
2022/07/24 11:01:44;;;;;;;4.10;2.45;;;;;;;27.36;52.18;159399.19;5000353;28;20078;-75
2022/07/24 11:04:22;;;;;;;6.30;2.72;;;;;;;27.35;51.99;159396.56;4984113;28;20043;-74
2022/07/24 11:06:54;;;;;;;3.33;2.50;;;;;;;27.64;51.32;159469.13;4989875;28;20054;-74
2022/07/24 11:09:23;;;;;;;4.45;2.42;;;;;;;27.86;50.30;159526.09;4999232;28;20451;-74
2022/07/24 11:11:51;;;;;;;4.45;2.70;;;;;;;27.75;50.61;159497.63;4974626;28;20142;-74
2022/07/24 11:14:26;;;;;;;3.65;2.55;;;;;;;27.88;51.44;159530.00;4978168;28;20073;-75
2022/07/24 11:16:52;;;;;;;3.35;2.40;;;;;;;27.90;50.39;159535.22;4985844;28;20034;-75
2022/07/24 11:19:18;;;;;;;3.75;2.92;;;;;;;27.98;50.17;159555.94;4992943;28;20116;-74
2022/07/24 11:21:47;;;;;;;4.47;2.55;;;;;;;27.92;50.48;159540.41;4986356;28;20109;-74